Time;durP1;ratioP1;P1;durP2;ratioP2;P2;SDS_P1;SDS_P2;PMS_P1;PMS_P2;Temp;Humidity;BMP_temperature;BMP_pressure;BME280_temperature;BME280_humidity;BME280_pressure;Samples;Min_cycle;Max_cycle;Signal;HPM_P1;HPM_P2
2023/12/31 00:01:46;;;;;;;1.07;1.07;;;;;;;-0.39;100.00;97252.47;4773999;30;20146;-77
2023/12/31 00:04:14;;;;;;;1.02;1.02;;;;;;;-0.40;100.00;97255.38;4775322;30;20052;-78
2023/12/31 00:06:41;;;;;;;1.08;1.08;;;;;;;-0.39;100.00;97262.28;4765463;30;20087;-77
2023/12/31 00:09:09;;;;;;;1.10;1.10;;;;;;;-0.39;100.00;97270.22;4782454;29;20127;-78
2023/12/31 00:11:36;;;;;;;1.00;1.00;;;;;;;-0.46;100.00;97252.56;4785214;29;20491;-79
2023/12/31 00:14:04;;;;;;;1.00;1.00;;;;;;;-0.47;100.00;97261.53;4768619;30;20435;-80
2023/12/31 00:16:33;;;;;;;0.80;0.80;;;;;;;-0.46;100.00;97260.50;4784581;30;20055;-79
2023/12/31 00:19:01;;;;;;;1.10;1.10;;;;;;;-0.48;100.00;97261.72;4785651;29;20141;-78
2023/12/31 00:21:29;;;;;;;1.02;1.02;;;;;;;-0.45;100.00;97258.66;4785015;29;20796;-78
2023/12/31 00:23:56;;;;;;;1.00;1.00;;;;;;;-0.44;100.00;97266.38;4784917;29;20059;-79
2023/12/31 00:26:24;;;;;;;0.85;0.85;;;;;;;-0.44;100.00;97261.09;4784715;30;20098;-79
2023/12/31 00:29:03;;;;;;;0.95;0.95;;;;;;;-0.48;100.00;97238.72;4784999;29;20067;-79
2023/12/31 00:31:30;;;;;;;1.00;1.00;;;;;;;-0.48;100.00;97251.97;4784253;29;20100;-79
2023/12/31 00:33:57;;;;;;;1.02;1.02;;;;;;;-0.52;100.00;97258.72;4798236;29;20177;-78
2023/12/31 00:36:25;;;;;;;1.00;1.00;;;;;;;-0.47;100.00;97258.06;4783950;29;20059;-78
2023/12/31 00:38:53;;;;;;;1.00;1.00;;;;;;;-0.44;100.00;97258.44;4784560;30;20511;-78
2023/12/31 00:41:21;;;;;;;0.90;0.90;;;;;;;-0.41;100.00;97246.59;4784373;30;20138;-79
2023/12/31 00:43:48;;;;;;;1.10;1.10;;;;;;;-0.42;100.00;97255.56;4798365;29;20519;-78
2023/12/31 00:46:15;;;;;;;1.00;1.00;;;;;;;-0.46;100.00;97251.72;4767234;30;20508;-79
2023/12/31 00:48:43;;;;;;;1.08;1.08;;;;;;;-0.47;100.00;97255.41;4766096;30;20105;-79
2023/12/31 00:51:11;;;;;;;1.08;1.08;;;;;;;-0.51;100.00;97238.31;4751458;30;20067;-80
2023/12/31 00:53:38;;;;;;;1.10;1.10;;;;;;;-0.50;100.00;97250.56;4796479;29;20150;-79
2023/12/31 00:56:08;;;;;;;1.00;1.00;;;;;;;-0.49;100.00;97245.00;4802959;29;20065;-79
2023/12/31 00:58:36;;;;;;;1.00;1.00;;;;;;;-0.44;100.00;97245.19;4803181;29;20057;-80
2023/12/31 01:01:04;;;;;;;1.10;1.10;;;;;;;-0.46;100.00;97246.41;4803289;29;20059;-79
2023/12/31 01:03:33;;;;;;;1.00;1.00;;;;;;;-0.45;100.00;97237.47;4802978;29;20063;-80
2023/12/31 01:06:05;;;;;;;0.98;0.98;;;;;;;-0.45;100.00;97232.97;4803128;29;20055;-79
2023/12/31 01:08:33;;;;;;;1.05;1.05;;;;;;;-0.45;100.00;97235.63;4798861;29;20063;-79
2023/12/31 01:11:00;;;;;;;1.02;1.02;;;;;;;-0.44;100.00;97237.22;4783728;30;20105;-79
2023/12/31 01:13:28;;;;;;;1.00;1.00;;;;;;;-0.47;100.00;97250.13;4783873;29;20108;-79
2023/12/31 01:15:56;;;;;;;1.00;1.00;;;;;;;-0.52;100.00;97240.16;4788359;29;20054;-79
2023/12/31 01:18:23;;;;;;;1.10;1.10;;;;;;;-0.53;100.00;97241.19;4787859;29;20051;-79
2023/12/31 01:20:50;;;;;;;1.00;1.00;;;;;;;-0.51;100.00;97241.75;4788094;29;20598;-80
2023/12/31 01:23:18;;;;;;;1.02;1.02;;;;;;;-0.51;100.00;97248.91;4787864;29;20519;-80
2023/12/31 01:25:45;;;;;;;0.90;0.90;;;;;;;-0.47;100.00;97253.56;4788113;30;20104;-80
2023/12/31 01:28:13;;;;;;;1.00;1.00;;;;;;;-0.45;100.00;97254.16;4787608;30;20603;-80
2023/12/31 01:30:41;;;;;;;1.10;1.10;;;;;;;-0.43;100.00;97256.63;4785790;29;20078;-80
2023/12/31 01:33:08;;;;;;;1.00;1.00;;;;;;;-0.42;100.00;97246.81;4775264;30;20055;-80
2023/12/31 01:35:36;;;;;;;1.05;1.05;;;;;;;-0.42;100.00;97252.94;4787428;29;20063;-80
2023/12/31 01:38:03;;;;;;;1.00;1.00;;;;;;;-0.44;100.00;97253.13;4769065;30;20062;-80
2023/12/31 01:40:31;;;;;;;0.98;0.98;;;;;;;-0.39;100.00;97252.47;4770073;30;20067;-80
2023/12/31 01:42:58;;;;;;;0.95;0.95;;;;;;;-0.39;100.00;97257.78;4786172;30;20063;-80
2023/12/31 01:45:25;;;;;;;1.10;1.10;;;;;;;-0.40;100.00;97260.66;4786526;30;20515;-81
2023/12/31 01:47:53;;;;;;;0.95;0.95;;;;;;;-0.43;100.00;97261.91;4787821;29;20603;-81
2023/12/31 01:50:21;;;;;;;1.08;1.08;;;;;;;-0.43;100.00;97261.91;4787370;30;20586;-80
2023/12/31 01:52:51;;;;;;;1.10;1.10;;;;;;;-0.42;100.00;97260.88;4771647;30;20051;-80
2023/12/31 01:55:18;;;;;;;1.00;1.00;;;;;;;-0.42;100.00;97260.88;4801296;29;20480;-80
2023/12/31 01:57:46;;;;;;;1.00;1.00;;;;;;;-0.40;100.00;97258.03;4787877;30;20453;-79
2023/12/31 02:00:13;;;;;;;0.88;0.88;;;;;;;-0.38;100.00;97243.53;4771851;30;20055;-80
2023/12/31 02:02:42;;;;;;;0.95;0.95;;;;;;;-0.37;100.00;97252.28;4786340;30;20058;-80
2023/12/31 02:05:16;;;;;;;1.00;1.00;;;;;;;-0.42;100.00;97239.66;4786693;29;20554;-79
2023/12/31 02:07:43;;;;;;;1.02;1.02;;;;;;;-0.40;100.00;97258.03;4787784;29;20507;-80
2023/12/31 02:10:11;;;;;;;0.95;0.95;;;;;;;-0.38;100.00;97253.28;4794304;29;20063;-79
2023/12/31 02:12:55;;;;;;;0.90;0.90;;;;;;;-0.39;100.00;97259.63;4788867;29;20067;-80
2023/12/31 02:15:30;;;;;;;1.00;1.00;;;;;;;-0.38;100.00;97253.28;4787471;29;20137;-79
2023/12/31 02:18:02;;;;;;;0.90;0.90;;;;;;;-0.34;100.00;97254.50;4786255;29;20076;-79
2023/12/31 02:20:31;;;;;;;1.10;1.10;;;;;;;-0.33;100.00;97251.63;4787054;30;20119;-79
2023/12/31 02:22:58;;;;;;;1.00;1.00;;;;;;;-0.33;100.00;97261.41;4785954;30;20054;-79
2023/12/31 02:25:30;;;;;;;1.00;1.00;;;;;;;-0.30;100.00;97258.34;4785166;29;20074;-78
2023/12/31 02:27:57;;;;;;;1.10;1.10;;;;;;;-0.35;100.00;97258.97;4787169;29;20058;-79
2023/12/31 02:30:26;;;;;;;1.00;1.00;;;;;;;-0.36;100.00;97261.84;4785752;30;20055;-79
2023/12/31 02:32:53;;;;;;;1.00;1.00;;;;;;;-0.41;100.00;97265.13;4785758;29;20067;-79
2023/12/31 02:35:20;;;;;;;1.02;1.02;;;;;;;-0.44;100.00;97261.09;4785693;30;20051;-79
2023/12/31 02:37:48;;;;;;;1.10;1.10;;;;;;;-0.44;100.00;97263.72;4785903;30;20150;-78
2023/12/31 02:40:18;;;;;;;1.00;1.00;;;;;;;-0.45;100.00;97264.78;4785335;30;20114;-79
2023/12/31 02:42:46;;;;;;;1.10;1.10;;;;;;;-0.46;100.00;97264.97;4786338;30;20396;-79
2023/12/31 02:45:13;;;;;;;1.00;1.00;;;;;;;-0.49;100.00;97262.75;4800504;29;20515;-78
2023/12/31 02:47:41;;;;;;;1.00;1.00;;;;;;;-0.55;100.00;97253.03;4785519;29;20055;-78
2023/12/31 02:50:09;;;;;;;1.10;1.10;;;;;;;-0.51;100.00;97270.13;4787074;29;20074;-78
2023/12/31 02:52:36;;;;;;;0.85;0.85;;;;;;;-0.55;100.00;97264.44;4785541;30;20154;-79
2023/12/31 02:55:06;;;;;;;1.00;1.00;;;;;;;-0.55;100.00;97261.78;4786447;29;20059;-78
2023/12/31 02:57:34;;;;;;;1.10;1.10;;;;;;;-0.54;100.00;97258.09;4785133;30;20055;-80
2023/12/31 03:00:01;;;;;;;1.02;1.02;;;;;;;-0.54;100.00;97259.94;4788831;29;20107;-79
2023/12/31 03:02:30;;;;;;;1.10;1.10;;;;;;;-0.58;100.00;97258.75;4803082;29;20058;-78
2023/12/31 03:04:58;;;;;;;1.10;1.10;;;;;;;-0.59;100.00;97246.53;4804697;29;20054;-78
2023/12/31 03:07:29;;;;;;;1.05;1.05;;;;;;;-0.63;100.00;97248.81;4802934;29;20051;-79
2023/12/31 03:09:57;;;;;;;1.00;1.00;;;;;;;-0.65;100.00;97256.16;4818564;29;20130;-79
2023/12/31 03:12:24;;;;;;;1.00;1.00;;;;;;;-0.67;100.00;97253.72;4803979;29;20111;-78
2023/12/31 03:14:51;;;;;;;0.90;0.90;;;;;;;-0.64;100.00;97254.31;4804340;29;20057;-79
2023/12/31 03:17:19;;;;;;;1.10;1.10;;;;;;;-0.63;100.00;97256.78;4804219;29;20465;-77
2023/12/31 03:19:46;;;;;;;0.88;0.88;;;;;;;-0.65;100.00;97256.16;4803824;29;20047;-79
2023/12/31 03:22:14;;;;;;;1.00;1.00;;;;;;;-0.65;100.00;97261.47;4817929;29;20055;-78
2023/12/31 03:25:03;;;;;;;1.10;1.10;;;;;;;-0.64;100.00;97249.81;4804039;29;20086;-79
2023/12/31 03:27:30;;;;;;;1.02;1.02;;;;;;;-0.64;100.00;97247.19;4803953;29;20145;-79
2023/12/31 03:29:58;;;;;;;0.90;0.90;;;;;;;-0.59;100.00;97251.84;4802953;29;20046;-78
2023/12/31 03:32:25;;;;;;;1.23;1.20;;;;;;;-0.57;100.00;97253.25;4802386;29;20506;-79
2023/12/31 03:34:52;;;;;;;1.10;1.10;;;;;;;-0.56;100.00;97254.84;4804270;29;20065;-78
2023/12/31 03:37:21;;;;;;;1.00;1.00;;;;;;;-0.58;100.00;97251.63;4799154;29;20051;-79
2023/12/31 03:39:50;;;;;;;1.00;1.00;;;;;;;-0.56;100.00;97260.16;4785943;29;20184;-78
2023/12/31 03:42:18;;;;;;;1.10;1.10;;;;;;;-0.53;100.00;97251.78;4798990;29;20523;-78
2023/12/31 03:44:47;;;;;;;0.90;0.90;;;;;;;-0.52;100.00;97255.25;4785716;29;20055;-78
2023/12/31 03:47:14;;;;;;;0.90;0.90;;;;;;;-0.59;100.00;97251.84;4768591;30;20059;-78
2023/12/31 03:49:41;;;;;;;1.00;1.00;;;;;;;-0.55;100.00;97253.03;4785655;29;20138;-79
2023/12/31 03:52:10;;;;;;;1.00;1.00;;;;;;;-0.54;100.00;97250.16;4785694;30;20055;-79
2023/12/31 03:54:46;;;;;;;1.10;1.10;;;;;;;-0.56;100.00;97246.91;4785679;29;20474;-78
2023/12/31 03:57:14;;;;;;;1.10;1.10;;;;;;;-0.53;100.00;97254.44;4786644;29;20059;-78
2023/12/31 03:59:41;;;;;;;1.00;1.00;;;;;;;-0.54;100.00;97244.84;4784654;29;20459;-80
2023/12/31 04:02:09;;;;;;;1.02;1.02;;;;;;;-0.52;100.00;97242.81;4784839;29;20062;-79
2023/12/31 04:04:36;;;;;;;1.10;1.10;;;;;;;-0.49;100.00;97247.66;4785775;29;20495;-79
2023/12/31 04:07:04;;;;;;;1.00;1.00;;;;;;;-0.47;100.00;97240.31;4784350;30;20089;-78
2023/12/31 04:09:32;;;;;;;1.10;1.10;;;;;;;-0.42;100.00;97252.13;4784365;30;20055;-78
2023/12/31 04:12:05;;;;;;;1.10;1.10;;;;;;;-0.39;100.00;97235.78;4784744;30;20061;-78
2023/12/31 04:14:32;;;;;;;0.98;0.98;;;;;;;-0.39;100.00;97230.47;4785506;29;20058;-79
2023/12/31 04:16:59;;;;;;;0.98;0.98;;;;;;;-0.39;100.00;97238.44;4785665;29;20055;-80
2023/12/31 04:19:26;;;;;;;1.00;1.00;;;;;;;-0.37;100.00;97239.03;4785651;29;20065;-80
2023/12/31 04:21:56;;;;;;;1.00;1.00;;;;;;;-0.36;100.00;97240.63;4786080;29;20056;-79
2023/12/31 04:24:23;;;;;;;1.00;1.00;;;;;;;-0.35;100.00;97236.97;4788040;29;20059;-79
2023/12/31 04:26:52;;;;;;;0.98;0.98;;;;;;;-0.32;100.00;97242.63;4786195;30;20134;-80
2023/12/31 04:29:19;;;;;;;1.00;1.00;;;;;;;-0.28;100.00;97245.66;4793961;29;20059;-80
2023/12/31 04:31:47;;;;;;;1.10;1.10;;;;;;;-0.26;100.00;97243.59;4795179;29;20059;-79
2023/12/31 04:34:23;;;;;;;1.00;1.00;;;;;;;-0.24;100.00;97242.34;4799838;29;20563;-79
2023/12/31 04:36:51;;;;;;;1.10;1.10;;;;;;;-0.24;100.00;97252.97;4817222;29;20095;-80
2023/12/31 04:39:18;;;;;;;1.00;1.00;;;;;;;-0.22;100.00;97248.25;4803258;29;20066;-80
2023/12/31 04:41:48;;;;;;;0.90;0.90;;;;;;;-0.24;100.00;97242.34;4788563;29;20056;-79
2023/12/31 04:44:16;;;;;;;1.05;1.05;;;;;;;-0.22;100.00;97240.28;4766118;30;20138;-79
2023/12/31 04:46:44;;;;;;;0.90;0.90;;;;;;;-0.18;100.00;97242.50;4766074;30;20070;-79
2023/12/31 04:49:15;;;;;;;1.10;1.10;;;;;;;-0.17;100.00;97246.78;4768730;30;20146;-79
2023/12/31 04:51:42;;;;;;;1.00;1.00;;;;;;;-0.17;100.00;97247.59;4770657;30;20430;-79
2023/12/31 04:54:11;;;;;;;0.90;0.90;;;;;;;-0.16;100.00;97243.91;4769422;30;20059;-79
2023/12/31 04:56:38;;;;;;;1.00;1.00;;;;;;;-0.16;100.00;97251.88;4769461;30;20059;-78
2023/12/31 04:59:06;;;;;;;1.00;1.00;;;;;;;-0.14;100.00;97246.34;4799663;29;20117;-79
2023/12/31 05:01:33;;;;;;;1.00;1.00;;;;;;;-0.14;100.00;97249.81;4784640;29;20054;-79
2023/12/31 05:04:01;;;;;;;1.00;1.00;;;;;;;-0.13;100.00;97251.41;4786793;29;20571;-79
2023/12/31 05:06:29;;;;;;;1.00;1.00;;;;;;;-0.11;100.00;97251.22;4787731;30;20066;-79
2023/12/31 05:08:56;;;;;;;1.00;1.00;;;;;;;-0.12;100.00;97253.06;4787951;29;20511;-80
2023/12/31 05:11:25;;;;;;;1.10;1.10;;;;;;;-0.13;100.00;97251.41;4787186;29;20529;-78
2023/12/31 05:13:53;;;;;;;1.00;1.00;;;;;;;-0.13;100.00;97254.06;4787639;30;20066;-80
2023/12/31 05:16:20;;;;;;;1.10;1.10;;;;;;;-0.12;100.00;97254.91;4785988;29;20136;-78
2023/12/31 05:18:51;;;;;;;1.10;1.10;;;;;;;-0.14;100.00;97260.41;4788935;29;20051;-79
2023/12/31 05:21:19;;;;;;;1.10;1.10;;;;;;;-0.21;100.00;97254.34;4783390;30;20104;-79
2023/12/31 05:23:46;;;;;;;1.02;1.02;;;;;;;-0.16;100.00;97259.00;4791513;29;20483;-79
2023/12/31 05:26:14;;;;;;;1.00;1.00;;;;;;;-0.12;100.00;97263.66;4787192;29;20047;-79
2023/12/31 05:28:42;;;;;;;1.10;1.10;;;;;;;-0.11;100.00;97265.28;4783781;29;20051;-77
2023/12/31 05:31:12;;;;;;;1.00;1.00;;;;;;;-0.11;100.00;97269.78;4800703;29;20050;-78
2023/12/31 05:33:46;;;;;;;1.00;1.00;;;;;;;-0.10;100.00;97266.91;4789873;29;20059;-81
2023/12/31 05:36:15;;;;;;;1.10;1.10;;;;;;;-0.14;100.00;97265.72;4786964;30;20066;-78
2023/12/31 05:38:42;;;;;;;1.10;1.10;;;;;;;-0.05;100.00;97274.19;4786937;30;20055;-77
2023/12/31 05:41:09;;;;;;;1.00;1.00;;;;;;;-0.04;100.00;97274.00;4786320;29;20141;-78
2023/12/31 05:43:36;;;;;;;1.00;1.00;;;;;;;-0.04;100.00;97275.84;4786400;29;20070;-81
2023/12/31 05:46:04;;;;;;;1.00;1.00;;;;;;;0.01;100.00;97280.50;4787240;29;20138;-78
2023/12/31 05:48:33;;;;;;;1.00;1.00;;;;;;;0.02;100.00;97276.78;4785308;30;20043;-78
2023/12/31 05:51:01;;;;;;;1.00;1.00;;;;;;;0.05;100.00;97273.69;4784743;29;20108;-77
2023/12/31 05:53:31;;;;;;;1.00;1.00;;;;;;;0.05;100.00;97279.00;4799773;29;20051;-75
2023/12/31 05:56:00;;;;;;;1.00;1.00;;;;;;;0.05;100.00;97279.00;4786210;29;20063;-76
2023/12/31 05:58:28;;;;;;;1.05;1.05;;;;;;;0.03;100.00;97276.59;4786021;29;20058;-76
2023/12/31 06:00:55;;;;;;;1.10;1.10;;;;;;;0.04;100.00;97282.69;4798162;29;20118;-77
2023/12/31 06:03:22;;;;;;;0.85;0.85;;;;;;;0.04;100.00;97278.19;4785331;29;20563;-77
2023/12/31 06:05:50;;;;;;;1.00;1.00;;;;;;;0.04;100.00;97288.00;4798447;29;20059;-77
2023/12/31 06:08:17;;;;;;;1.10;1.10;;;;;;;0.05;100.00;97279.84;4785842;30;20055;-77
2023/12/31 06:10:44;;;;;;;0.88;0.88;;;;;;;0.06;100.00;97281.44;4784780;29;20134;-78
2023/12/31 06:13:12;;;;;;;1.00;1.00;;;;;;;0.06;100.00;97280.63;4782151;30;20108;-77
2023/12/31 06:15:39;;;;;;;1.00;1.00;;;;;;;0.09;100.00;97286.31;4774132;29;20130;-80
2023/12/31 06:18:07;;;;;;;1.00;1.00;;;;;;;0.09;100.00;97286.31;4783189;30;20055;-79
2023/12/31 06:20:34;;;;;;;1.00;1.00;;;;;;;0.12;100.00;97290.38;4781547;29;20511;-79
2023/12/31 06:23:02;;;;;;;1.00;1.00;;;;;;;0.11;100.00;97288.75;4777528;29;20457;-78
2023/12/31 06:25:32;;;;;;;0.95;0.95;;;;;;;0.12;100.00;97293.81;4769513;30;20047;-84
2023/12/31 06:28:01;;;;;;;1.10;1.10;;;;;;;0.13;100.00;97292.00;4763626;30;20589;-79
2023/12/31 06:30:28;;;;;;;1.00;1.00;;;;;;;0.14;100.00;97298.91;4772016;30;20130;-78
2023/12/31 06:32:56;;;;;;;1.10;1.10;;;;;;;0.15;100.00;97298.72;4780536;30;20618;-76
2023/12/31 06:35:23;;;;;;;1.00;1.00;;;;;;;0.18;100.00;97300.13;4782550;29;20062;-78
2023/12/31 06:37:50;;;;;;;1.10;1.10;;;;;;;0.23;100.00;97297.63;4780778;30;20134;-80
2023/12/31 06:40:18;;;;;;;0.90;0.90;;;;;;;0.26;100.00;97293.72;4780189;30;20063;-78
2023/12/31 06:42:48;;;;;;;1.10;1.10;;;;;;;0.21;100.00;97295.16;4780764;30;20055;-82
2023/12/31 06:45:15;;;;;;;1.00;1.00;;;;;;;0.23;100.00;97297.63;4778131;30;20760;-79
2023/12/31 06:47:43;;;;;;;1.00;1.00;;;;;;;0.25;100.00;97298.19;4778349;29;20140;-79
2023/12/31 06:50:11;;;;;;;1.00;1.00;;;;;;;0.29;100.00;97304.69;4779984;30;20078;-78
2023/12/31 06:52:39;;;;;;;0.90;0.90;;;;;;;0.31;100.00;97304.47;4778346;30;20051;-80
2023/12/31 06:55:10;;;;;;;1.10;1.10;;;;;;;0.30;100.00;97300.97;4764477;29;20067;-79
2023/12/31 06:57:38;;;;;;;1.10;1.10;;;;;;;0.31;100.00;97296.50;4792713;29;20112;-79
2023/12/31 07:00:09;;;;;;;0.90;0.90;;;;;;;0.35;100.00;97298.47;4767846;29;20058;-80
2023/12/31 07:02:37;;;;;;;1.00;1.00;;;;;;;0.35;100.00;97301.13;4781651;29;20051;-79
2023/12/31 07:05:05;;;;;;;1.00;1.00;;;;;;;0.37;100.00;97299.06;4781650;29;20465;-79
2023/12/31 07:07:33;;;;;;;1.00;1.00;;;;;;;0.35;100.00;97309.09;4781876;29;20052;-80
2023/12/31 07:10:04;;;;;;;1.10;1.10;;;;;;;0.39;100.00;97310.28;4779975;29;20090;-79
2023/12/31 07:12:32;;;;;;;1.00;1.00;;;;;;;0.36;100.00;97308.06;4795769;29;20771;-79
2023/12/31 07:15:00;;;;;;;0.95;0.95;;;;;;;0.35;100.00;97308.28;4779876;29;20518;-80
2023/12/31 07:17:29;;;;;;;1.00;1.00;;;;;;;0.36;100.00;97308.06;4452192;29;10000918;-81
2023/12/31 07:19:58;;;;;;;1.00;1.00;;;;;;;0.43;100.00;97316.78;4778481;30;20130;-82
2023/12/31 07:22:25;;;;;;;1.00;1.00;;;;;;;0.41;100.00;97318.03;4783002;29;20051;-80
2023/12/31 07:24:53;;;;;;;1.00;1.00;;;;;;;0.45;100.00;97310.44;4766054;30;20124;-82
2023/12/31 07:27:20;;;;;;;1.00;1.00;;;;;;;0.43;100.00;97321.25;4784069;30;20143;-79
2023/12/31 07:29:47;;;;;;;1.02;1.02;;;;;;;0.47;100.00;97329.63;4796777;29;20059;-78
2023/12/31 07:32:15;;;;;;;1.00;1.00;;;;;;;0.46;100.00;97330.63;4783162;29;20096;-78
2023/12/31 07:34:48;;;;;;;1.00;1.00;;;;;;;0.45;100.00;97329.00;4779569;30;20062;-80
2023/12/31 07:37:16;;;;;;;1.02;1.02;;;;;;;0.45;100.00;97336.97;4784838;29;20141;-78
2023/12/31 07:39:43;;;;;;;1.00;1.00;;;;;;;0.47;100.00;97325.09;4784470;29;20053;-81
2023/12/31 07:42:11;;;;;;;1.10;1.10;;;;;;;0.52;100.00;97335.88;4784448;29;20057;-81
2023/12/31 07:44:38;;;;;;;1.10;1.10;;;;;;;0.51;100.00;97331.59;4783149;30;20151;-78
2023/12/31 07:47:06;;;;;;;1.10;1.10;;;;;;;0.47;100.00;97330.41;4784529;29;20081;-78
2023/12/31 07:49:34;;;;;;;1.00;1.00;;;;;;;0.42;100.00;97339.03;4778808;30;20061;-80
2023/12/31 07:52:01;;;;;;;1.00;1.00;;;;;;;0.48;100.00;97341.84;4779577;30;20055;-79
2023/12/31 07:54:28;;;;;;;1.00;1.00;;;;;;;0.47;100.00;97341.03;4775443;29;20156;-80
2023/12/31 07:56:57;;;;;;;1.08;1.08;;;;;;;0.48;100.00;97345.31;4771460;30;20093;-77
2023/12/31 07:59:24;;;;;;;1.05;1.05;;;;;;;0.51;100.00;97342.22;4783136;29;20058;-78
2023/12/31 08:01:52;;;;;;;0.90;0.90;;;;;;;0.48;100.00;97339.19;4783920;29;20529;-79
2023/12/31 08:04:20;;;;;;;1.00;1.00;;;;;;;0.52;100.00;97343.03;4781953;30;20059;-78
2023/12/31 08:06:50;;;;;;;0.90;0.90;;;;;;;0.54;100.00;97340.97;4783788;29;20546;-77
2023/12/31 08:09:18;;;;;;;1.10;1.10;;;;;;;0.51;100.00;97347.53;4783740;30;20059;-78
2023/12/31 08:11:45;;;;;;;1.10;1.10;;;;;;;0.49;100.00;97346.13;4784189;29;20048;-78
2023/12/31 08:14:13;;;;;;;1.00;1.00;;;;;;;0.50;100.00;97348.53;4782794;29;20138;-79
2023/12/31 08:16:40;;;;;;;1.10;1.10;;;;;;;0.52;100.00;97349.16;4781524;30;20116;-78
2023/12/31 08:19:08;;;;;;;0.95;0.95;;;;;;;0.50;100.00;97353.84;4782686;30;20044;-79
2023/12/31 08:21:35;;;;;;;0.90;0.90;;;;;;;0.48;100.00;97363.91;4781907;29;20044;-78
2023/12/31 08:24:02;;;;;;;1.00;1.00;;;;;;;0.53;100.00;97372.03;4785306;29;20047;-76
2023/12/31 08:26:30;;;;;;;1.00;1.00;;;;;;;0.56;100.00;97366.25;4788099;29;20101;-78
2023/12/31 08:28:59;;;;;;;1.00;1.00;;;;;;;0.54;100.00;97364.88;4787193;30;20052;-77
2023/12/31 08:31:26;;;;;;;1.00;1.00;;;;;;;0.51;100.00;97365.31;4786443;29;20507;-78
2023/12/31 08:33:54;;;;;;;1.00;1.00;;;;;;;0.47;100.00;97367.56;4787574;29;20574;-78
2023/12/31 08:36:21;;;;;;;1.00;1.00;;;;;;;0.44;100.00;97368.03;4787794;29;20055;-80
2023/12/31 08:38:48;;;;;;;1.00;1.00;;;;;;;0.47;100.00;97372.88;4787884;29;20073;-79
2023/12/31 08:41:16;;;;;;;1.05;1.05;;;;;;;0.54;100.00;97380.78;4786664;30;20138;-79
2023/12/31 08:43:44;;;;;;;1.00;1.00;;;;;;;0.48;100.00;97368.38;4787111;30;20051;-82
2023/12/31 08:46:12;;;;;;;1.00;1.00;;;;;;;0.53;100.00;97382.66;4786373;29;20594;-79
2023/12/31 08:48:40;;;;;;;1.00;1.00;;;;;;;0.55;100.00;97382.41;4785222;30;20066;-80
2023/12/31 08:51:07;;;;;;;1.00;1.00;;;;;;;0.52;100.00;97381.00;4787069;30;20047;-80
2023/12/31 08:53:36;;;;;;;1.05;1.05;;;;;;;0.53;100.00;97384.47;4787092;29;20086;-84
2023/12/31 08:56:04;;;;;;;1.10;1.10;;;;;;;0.55;100.00;97385.06;4787037;29;20147;-82
2023/12/31 08:58:31;;;;;;;0.95;0.95;;;;;;;0.58;100.00;97385.44;4785321;30;20081;-78
2023/12/31 09:00:59;;;;;;;1.10;1.10;;;;;;;0.60;100.00;97388.66;4785259;29;20078;-77
2023/12/31 09:03:26;;;;;;;1.08;1.08;;;;;;;0.64;100.00;97391.72;4786457;29;20055;-78
2023/12/31 09:05:54;;;;;;;1.00;1.00;;;;;;;0.69;100.00;97402.50;4785820;30;20484;-79
2023/12/31 09:08:24;;;;;;;1.10;1.10;;;;;;;0.71;100.00;97400.44;4785730;30;20156;-79
2023/12/31 09:10:54;;;;;;;0.93;0.93;;;;;;;0.65;100.00;97388.81;4784973;30;20071;-77
2023/12/31 09:13:22;;;;;;;1.10;1.10;;;;;;;0.63;100.00;97393.56;4785935;29;20051;-78
2023/12/31 09:15:49;;;;;;;1.00;1.00;;;;;;;0.60;100.00;97404.59;4785321;29;20179;-80
2023/12/31 09:18:17;;;;;;;1.00;1.00;;;;;;;0.64;100.00;97407.66;4786684;29;20511;-78
2023/12/31 09:20:45;;;;;;;1.00;1.00;;;;;;;0.60;100.00;97404.59;4786430;30;20067;-79
2023/12/31 09:23:12;;;;;;;1.00;1.00;;;;;;;0.61;100.00;97410.75;4787782;29;20044;-78
2023/12/31 09:25:40;;;;;;;1.10;1.10;;;;;;;0.66;100.00;97410.91;4783763;30;20054;-80
2023/12/31 09:28:10;;;;;;;1.10;1.10;;;;;;;0.69;100.00;97402.50;4785951;29;20043;-79
2023/12/31 09:30:38;;;;;;;1.00;1.00;;;;;;;0.79;100.00;97407.28;4784973;30;20051;-79
2023/12/31 09:33:05;;;;;;;1.10;1.10;;;;;;;0.77;100.00;97415.47;4786723;29;20051;-80
2023/12/31 09:35:34;;;;;;;1.10;1.10;;;;;;;0.79;100.00;97416.06;4783609;29;20174;-79
2023/12/31 09:38:02;;;;;;;1.10;1.10;;;;;;;0.71;100.00;97416.34;4783476;30;20055;-80
2023/12/31 09:40:30;;;;;;;1.00;1.00;;;;;;;0.64;100.00;97410.31;4784755;29;20578;-79
2023/12/31 09:42:58;;;;;;;1.00;1.00;;;;;;;0.63;100.00;97420.13;4785620;29;20051;-81
2023/12/31 09:45:30;;;;;;;1.00;1.00;;;;;;;0.62;100.00;97423.78;4785416;30;20075;-79
2023/12/31 09:48:01;;;;;;;1.00;1.00;;;;;;;0.62;100.00;97425.63;4784846;30;20589;-81
2023/12/31 09:50:32;;;;;;;1.00;1.00;;;;;;;0.53;100.00;97424.28;4786165;30;20051;-82
2023/12/31 09:53:02;;;;;;;1.10;1.10;;;;;;;0.52;100.00;97433.28;4786547;30;20506;-82
2023/12/31 09:55:31;;;;;;;1.00;1.00;;;;;;;0.52;100.00;97435.94;4770563;30;20059;-78
2023/12/31 09:57:59;;;;;;;1.10;1.10;;;;;;;0.54;100.00;97437.34;4784598;30;20055;-79
2023/12/31 10:00:26;;;;;;;1.10;1.10;;;;;;;0.56;100.00;97439.78;4775276;30;20577;-79
2023/12/31 10:02:53;;;;;;;1.10;1.10;;;;;;;0.60;100.00;97431.16;4777404;29;20146;-80
2023/12/31 10:05:22;;;;;;;0.93;0.93;;;;;;;0.63;100.00;97440.53;4798961;29;20058;-78
2023/12/31 10:07:49;;;;;;;1.00;1.00;;;;;;;0.59;100.00;97434.03;4786264;29;20063;-79
2023/12/31 10:10:19;;;;;;;1.05;1.05;;;;;;;0.52;100.00;97443.91;4786261;29;20582;-77
2023/12/31 10:12:46;;;;;;;0.90;0.90;;;;;;;0.50;100.00;97438.81;4773159;30;20055;-79
2023/12/31 10:15:14;;;;;;;1.00;1.00;;;;;;;0.48;100.00;97438.22;4784947;29;20141;-79
2023/12/31 10:17:41;;;;;;;1.00;1.00;;;;;;;0.50;100.00;97440.66;4783816;30;20051;-79
2023/12/31 10:20:09;;;;;;;1.00;1.00;;;;;;;0.52;100.00;97449.22;4799086;29;20051;-79
2023/12/31 10:22:36;;;;;;;1.00;1.00;;;;;;;0.54;100.00;97437.34;4781786;29;20209;-78
2023/12/31 10:25:13;;;;;;;1.00;1.00;;;;;;;0.55;100.00;97452.22;4772779;30;20559;-78
2023/12/31 10:27:47;;;;;;;1.00;1.00;;;;;;;0.55;100.00;97443.47;4768316;30;20063;-79
2023/12/31 10:30:15;;;;;;;1.10;1.10;;;;;;;0.54;100.00;97447.16;4768707;30;20052;-78
2023/12/31 10:32:43;;;;;;;1.10;1.10;;;;;;;0.52;100.00;97451.88;4780828;30;20051;-78
2023/12/31 10:35:10;;;;;;;1.10;1.10;;;;;;;0.53;100.00;97445.50;4784737;29;20047;-78
2023/12/31 10:37:38;;;;;;;1.00;1.00;;;;;;;0.53;100.00;97437.56;4785729;29;20058;-78
2023/12/31 10:40:24;;;;;;;1.00;1.00;;;;;;;0.54;100.00;97444.50;4785882;29;20419;-78
2023/12/31 10:42:56;;;;;;;0.93;0.93;;;;;;;0.52;100.00;97438.59;4754280;30;20059;-79
2023/12/31 10:45:25;;;;;;;0.98;0.98;;;;;;;0.55;100.00;97454.09;4781841;30;20077;-79
2023/12/31 10:47:56;;;;;;;0.90;0.90;;;;;;;0.55;100.00;97446.94;4784789;29;20137;-78
2023/12/31 10:50:24;;;;;;;1.10;1.10;;;;;;;0.57;100.00;97457.34;4767224;30;20058;-80
2023/12/31 10:53:01;;;;;;;1.10;1.10;;;;;;;0.57;100.00;97444.06;4784422;29;20058;-78
2023/12/31 10:55:30;;;;;;;1.00;1.00;;;;;;;0.55;100.00;97452.22;4785034;29;20059;-77
2023/12/31 10:57:58;;;;;;;1.10;1.10;;;;;;;0.55;100.00;97449.56;4781817;30;20501;-80
2023/12/31 11:00:25;;;;;;;0.98;0.98;;;;;;;0.57;100.00;97444.06;4769738;29;20044;-78
2023/12/31 11:02:54;;;;;;;1.00;1.00;;;;;;;0.57;100.00;97452.03;4781244;30;20055;-78
2023/12/31 11:05:22;;;;;;;1.00;1.00;;;;;;;0.59;100.00;97447.31;4794406;29;20051;-80
2023/12/31 11:07:50;;;;;;;1.10;1.10;;;;;;;0.61;100.00;97438.09;4784880;29;20145;-79
2023/12/31 11:10:22;;;;;;;0.98;0.98;;;;;;;0.58;100.00;97441.19;4772422;29;20139;-79
2023/12/31 11:12:50;;;;;;;1.10;1.10;;;;;;;0.57;100.00;97442.22;4762030;30;20158;-79
2023/12/31 11:15:19;;;;;;;1.00;1.00;;;;;;;0.63;100.00;97444.00;4796768;29;20143;-78
2023/12/31 11:18:05;;;;;;;1.00;1.00;;;;;;;0.67;100.00;97447.03;4784320;29;20055;-78
2023/12/31 11:21:20;;;;;;;1.00;1.00;;;;;;;0.74;100.00;97442.47;4785945;29;20450;-80
2023/12/31 11:24:00;;;;;;;1.00;1.00;;;;;;;0.74;100.00;97444.31;4741719;30;20075;-79
2023/12/31 11:26:28;;;;;;;1.00;1.00;;;;;;;0.64;100.00;97436.84;4715617;30;20527;-77
2023/12/31 11:28:56;;;;;;;1.00;1.00;;;;;;;0.59;100.00;97434.84;4742806;30;20059;-78
2023/12/31 11:31:24;;;;;;;1.00;1.00;;;;;;;0.62;100.00;97446.88;4743940;30;20060;-78
2023/12/31 11:33:51;;;;;;;0.93;0.93;;;;;;;0.63;100.00;97446.66;4745487;30;20064;-79
2023/12/31 11:36:18;;;;;;;1.02;1.02;;;;;;;0.62;100.00;97445.03;4746584;30;20171;-78